createdAt,value
2023-08-15T00:00:49.916Z,21.77
2023-08-15T00:05:52.796Z,21.82
2023-08-15T00:10:55.596Z,21.82
2023-08-15T00:15:59.819Z,21.78
2023-08-15T00:21:02.684Z,21.83
2023-08-15T00:26:05.525Z,21.84
2023-08-15T00:31:09.857Z,21.82
2023-08-15T00:36:12.773Z,21.80
2023-08-15T00:41:15.638Z,21.81
2023-08-15T00:46:19.897Z,21.81
2023-08-15T00:51:23.030Z,21.72
2023-08-15T00:56:25.985Z,21.64
2023-08-15T01:01:30.992Z,21.55
2023-08-15T01:06:33.866Z,21.50
2023-08-15T01:11:46.934Z,21.42
2023-08-15T01:16:54.262Z,21.42
2023-08-15T01:21:59.908Z,21.18
2023-08-15T01:27:04.869Z,21.09
2023-08-15T01:32:16.542Z,21.11
2023-08-15T01:37:27.469Z,21.04
2023-08-15T01:42:33.190Z,21.03
2023-08-15T01:47:36.344Z,21.02
2023-08-15T01:52:39.421Z,21.01
2023-08-15T01:57:43.831Z,20.95
2023-08-15T02:02:46.906Z,20.87
2023-08-15T02:07:49.773Z,20.91
2023-08-15T02:12:54.145Z,20.87
2023-08-15T02:17:57.243Z,20.86
2023-08-15T02:23:00.294Z,20.82
2023-08-15T02:28:04.866Z,20.79
2023-08-15T02:33:08.103Z,20.84
2023-08-15T02:38:11.117Z,20.81
2023-08-15T02:43:15.911Z,20.79
2023-08-15T02:48:18.889Z,20.71
2023-08-15T02:53:21.837Z,20.68
2023-08-15T02:58:26.045Z,20.70
2023-08-15T03:03:28.897Z,20.60
2023-08-15T03:08:32.371Z,20.54
2023-08-15T03:13:36.553Z,20.53
2023-08-15T03:18:40.657Z,20.53
2023-08-15T03:23:44.064Z,20.48
2023-08-15T03:28:48.266Z,20.47
2023-08-15T03:33:51.989Z,20.51
2023-08-15T03:38:55.914Z,20.55
2023-08-15T03:44:00.107Z,20.56
2023-08-15T03:49:03.536Z,20.58
2023-08-15T03:54:07.298Z,20.49
2023-08-15T03:59:11.736Z,20.54
2023-08-15T04:04:14.681Z,20.55
2023-08-15T04:09:17.627Z,20.60
2023-08-15T04:14:21.799Z,20.62
2023-08-15T04:19:25.258Z,20.64
2023-08-15T04:24:28.168Z,20.70
2023-08-15T04:29:32.345Z,20.65
2023-08-15T04:34:35.228Z,20.85
2023-08-15T04:39:38.150Z,20.90
2023-08-15T04:44:42.358Z,20.93
2023-08-15T04:49:45.522Z,20.96
2023-08-15T04:54:48.831Z,20.95
2023-08-15T04:59:53.101Z,20.92
2023-08-15T05:04:55.989Z,21.00
2023-08-15T05:09:59.005Z,20.93
2023-08-15T05:15:03.311Z,20.26
2023-08-15T05:20:09.002Z,19.43
2023-08-15T05:25:11.874Z,18.76
2023-08-15T05:30:22.400Z,18.51
2023-08-15T05:35:26.022Z,18.43
2023-08-15T05:40:29.148Z,18.47
2023-08-15T05:45:33.892Z,18.53
2023-08-15T05:50:36.718Z,18.60
2023-08-15T05:55:39.704Z,18.53
2023-08-15T06:00:44.116Z,18.61
2023-08-15T06:05:46.975Z,18.63
2023-08-15T06:10:50.071Z,18.75
2023-08-15T06:15:54.226Z,18.85
2023-08-15T06:20:57.032Z,18.90
2023-08-15T06:25:59.855Z,18.73
2023-08-15T06:31:04.077Z,18.84
2023-08-15T06:36:07.390Z,18.82
2023-08-15T06:41:10.200Z,18.80
2023-08-15T06:46:15.006Z,18.90
2023-08-15T06:51:17.885Z,19.32
2023-08-15T06:56:20.731Z,19.54
2023-08-15T07:01:24.960Z,19.68
2023-08-15T07:06:27.820Z,19.62
2023-08-15T07:11:30.628Z,19.55
2023-08-15T07:16:34.881Z,19.72
2023-08-15T07:21:37.999Z,20.20
2023-08-15T07:26:40.833Z,20.45
2023-08-15T07:31:45.184Z,20.58
2023-08-15T07:36:48.117Z,20.64
2023-08-15T07:41:50.926Z,20.80
2023-08-15T07:46:55.540Z,20.92
2023-08-15T07:51:58.395Z,21.10
2023-08-15T07:57:01.247Z,20.92
2023-08-15T08:02:05.355Z,21.15
2023-08-15T08:07:08.206Z,21.34
2023-08-15T08:12:11.387Z,21.68
2023-08-15T08:17:15.526Z,21.63
2023-08-15T08:22:18.338Z,20.97
2023-08-15T08:27:22.015Z,21.45
2023-08-15T08:32:26.251Z,21.45
2023-08-15T08:37:29.077Z,21.50
2023-08-15T08:42:31.981Z,21.82
2023-08-15T08:47:37.031Z,22.18
2023-08-15T08:52:46.446Z,22.37
2023-08-15T08:57:53.210Z,22.62
2023-08-15T09:02:58.142Z,22.91
2023-08-15T09:08:03.032Z,22.81
2023-08-15T09:13:06.195Z,22.68
2023-08-15T09:18:10.538Z,22.62
2023-08-15T09:23:13.569Z,22.74
2023-08-15T09:28:16.823Z,23.08
2023-08-15T09:33:21.272Z,23.35
2023-08-15T09:38:24.457Z,23.16
2023-08-15T09:43:27.360Z,23.17
2023-08-15T09:48:32.611Z,23.39
2023-08-15T09:53:36.874Z,23.70
2023-08-15T09:58:40.405Z,23.38
2023-08-15T10:03:46.476Z,23.06
2023-08-15T10:08:50.330Z,22.78
2023-08-15T10:13:53.957Z,23.60
2023-08-15T10:18:59.389Z,24.12
2023-08-15T10:24:05.746Z,24.32
2023-08-15T10:29:09.260Z,24.17
2023-08-15T10:34:13.751Z,24.02
2023-08-15T10:39:17.170Z,24.40
2023-08-15T10:44:20.348Z,24.37
2023-08-15T10:49:25.716Z,25.00
2023-08-15T10:54:28.495Z,25.59
2023-08-15T10:59:31.401Z,25.22
2023-08-15T11:04:35.941Z,25.67
2023-08-15T11:09:38.734Z,26.45
2023-08-15T11:14:41.524Z,25.95
2023-08-15T11:19:47.209Z,25.29
2023-08-15T11:24:52.243Z,26.13
2023-08-15T11:29:58.635Z,26.44
2023-08-15T11:35:02.997Z,25.54
2023-08-15T11:40:07.264Z,25.01
2023-08-15T11:45:11.426Z,25.47
2023-08-15T11:50:16.517Z,24.84
2023-08-15T11:55:20.270Z,24.91
2023-08-15T12:00:23.879Z,24.97
2023-08-15T12:05:28.056Z,25.36
2023-08-15T12:10:32.452Z,25.37
2023-08-15T12:15:35.230Z,26.13
2023-08-15T12:20:39.753Z,26.78
2023-08-15T12:25:42.585Z,26.98
2023-08-15T12:30:45.396Z,28.77
2023-08-15T12:35:50.681Z,28.49
2023-08-15T12:40:53.665Z,27.86
2023-08-15T12:45:56.651Z,26.45
2023-08-15T12:51:01.854Z,26.66
2023-08-15T12:56:05.019Z,27.85
2023-08-15T13:01:07.940Z,28.52
2023-08-15T13:06:12.392Z,27.93
2023-08-15T13:11:16.577Z,29.19
2023-08-15T13:16:19.497Z,29.04
2023-08-15T13:21:23.730Z,28.37
2023-08-15T13:26:26.633Z,27.39
2023-08-15T13:31:29.689Z,27.24
2023-08-15T13:36:33.879Z,27.65
2023-08-15T13:41:36.767Z,27.82
2023-08-15T13:46:39.651Z,27.27
2023-08-15T13:51:44.510Z,27.21
2023-08-15T13:56:47.397Z,27.29
2023-08-15T14:01:50.405Z,27.64
2023-08-15T14:06:59.778Z,26.90
2023-08-15T14:12:03.048Z,27.33
2023-08-15T14:17:08.028Z,26.79
2023-08-15T14:22:12.276Z,27.54
2023-08-15T14:27:15.091Z,27.32
2023-08-15T14:32:18.045Z,27.31
2023-08-15T14:37:22.730Z,27.57
2023-08-15T14:42:25.540Z,27.09
2023-08-15T14:47:30.245Z,27.67
2023-08-15T14:52:34.990Z,27.65
2023-08-15T14:57:38.107Z,28.29
2023-08-15T15:02:43.776Z,27.81
2023-08-15T15:07:48.337Z,27.61
2023-08-15T15:12:51.155Z,27.14
2023-08-15T15:17:54.149Z,26.80
2023-08-15T15:22:58.384Z,26.70
2023-08-15T15:28:01.253Z,26.83
2023-08-15T15:33:04.256Z,25.96
2023-08-15T15:38:08.458Z,25.89
2023-08-15T15:43:11.268Z,26.15
2023-08-15T15:48:14.150Z,26.31
2023-08-15T15:53:18.376Z,26.34
2023-08-15T15:58:21.154Z,26.58
2023-08-15T16:03:24.065Z,26.42
2023-08-15T16:08:28.384Z,26.54
2023-08-15T16:13:31.825Z,26.70
2023-08-15T16:18:34.655Z,26.01
2023-08-15T16:23:38.889Z,26.03
2023-08-15T16:28:41.931Z,26.26
2023-08-15T16:33:44.768Z,26.07
2023-08-15T16:38:48.980Z,26.08
2023-08-15T16:43:51.991Z,26.97
2023-08-15T16:48:54.906Z,26.56
2023-08-15T16:53:59.103Z,27.99
2023-08-15T16:59:02.061Z,28.49
2023-08-15T17:04:05.630Z,29.37
2023-08-15T17:09:10.754Z,28.73
2023-08-15T17:14:13.729Z,28.78
2023-08-15T17:19:16.563Z,28.83
2023-08-15T17:24:20.830Z,30.46
2023-08-15T17:29:23.941Z,28.08
2023-08-15T17:34:26.727Z,29.01
2023-08-15T17:39:30.994Z,29.10
2023-08-15T17:44:33.815Z,27.59
2023-08-15T17:49:36.634Z,26.61
2023-08-15T17:54:41.860Z,25.81
2023-08-15T17:59:44.688Z,25.83
2023-08-15T18:04:47.717Z,25.68
2023-08-15T18:09:51.849Z,25.62
2023-08-15T18:14:54.750Z,25.55
2023-08-15T18:19:57.548Z,25.09
2023-08-15T18:25:01.678Z,24.93
2023-08-15T18:30:05.081Z,24.88
2023-08-15T18:35:08.887Z,24.62
2023-08-15T18:40:13.734Z,24.22
2023-08-15T18:45:16.528Z,24.12
2023-08-15T18:50:21.030Z,23.92
2023-08-15T18:55:25.154Z,23.79
2023-08-15T19:00:28.898Z,23.50
2023-08-15T19:05:31.703Z,23.31
2023-08-15T19:10:35.914Z,22.87
2023-08-15T19:15:39.839Z,22.90
2023-08-15T19:20:42.807Z,22.62
2023-08-15T19:25:47.676Z,22.51
2023-08-15T19:30:50.446Z,22.56
2023-08-15T19:35:53.305Z,22.63
2023-08-15T19:40:57.543Z,22.29
2023-08-15T19:46:00.722Z,22.37
2023-08-15T19:51:03.562Z,22.29
2023-08-15T19:56:07.794Z,22.24
2023-08-15T20:01:11.428Z,22.33
2023-08-15T20:06:14.272Z,22.13
2023-08-15T20:11:18.637Z,21.91
2023-08-15T20:16:21.550Z,22.01
2023-08-15T20:21:24.437Z,22.04
2023-08-15T20:26:28.613Z,21.89
2023-08-15T20:31:31.586Z,21.94
2023-08-15T20:36:34.433Z,21.97
2023-08-15T20:41:38.558Z,21.77
2023-08-15T20:46:41.766Z,21.64
2023-08-15T20:51:44.619Z,21.54
2023-08-15T20:56:48.778Z,21.37
2023-08-15T21:01:51.621Z,21.14
2023-08-15T21:06:54.555Z,21.01
2023-08-15T21:11:58.774Z,21.12
2023-08-15T21:17:03.160Z,20.96
2023-08-15T21:22:06.326Z,20.58
2023-08-15T21:27:10.667Z,20.13
2023-08-15T21:32:13.455Z,20.25
2023-08-15T21:37:16.256Z,20.44
2023-08-15T21:42:20.393Z,20.51
2023-08-15T21:47:23.561Z,20.55
2023-08-15T21:52:26.591Z,20.58
2023-08-15T21:57:30.751Z,20.58
2023-08-15T22:02:33.636Z,20.56
2023-08-15T22:07:36.459Z,20.41
2023-08-15T22:12:40.619Z,20.04
2023-08-15T22:17:46.427Z,19.93
2023-08-15T22:22:50.731Z,19.79
2023-08-15T22:27:55.605Z,19.82
2023-08-15T22:32:58.413Z,19.92
2023-08-15T22:38:01.304Z,19.82
2023-08-15T22:43:06.188Z,19.78
2023-08-15T22:48:09.094Z,19.68
2023-08-15T22:53:11.910Z,19.71
2023-08-15T22:58:18.702Z,19.85
2023-08-15T23:03:21.480Z,19.85
2023-08-15T23:08:24.274Z,19.83
2023-08-15T23:13:28.407Z,19.88
2023-08-15T23:18:31.249Z,19.70
2023-08-15T23:23:34.011Z,19.72
2023-08-15T23:28:38.515Z,19.72
2023-08-15T23:33:45.622Z,19.83
2023-08-15T23:38:48.362Z,19.89
2023-08-15T23:43:52.464Z,19.91
2023-08-15T23:48:55.220Z,19.66
2023-08-15T23:53:57.982Z,19.52
2023-08-15T23:59:02.104Z,19.47
